Nashville, Tennessee
Traffic Map
Current Weather Conditions
Nashville, Tennessee
Scattered Clouds
Scattered Clouds
77°
Feels Like: 78°
Wind Chill: 77° Ceiling: Unl
Heat Index: 78° Visibility: 10mi
Dew Point: 51° Wind: 12mph
Humidity: 40% Direction: 250° (WSW)
Pressure: 29.94in Gusts: 17mph
Raw Report DataKBNA 311753Z 25010G15KT 10SM FEW045 SCT200 25/11 A2994 RMK AO2 SLP136 T02500106 10250 20067 58016
Traffic Incident Summary
Active as of:
Severity:
Category:
InformationThere was an issue retrieving the traffic information for this location. Please try a different location or try again shortly.
Advertisements
Track Severe Weather on mobile